createdAt,value
2018-07-09T00:00:38.713Z,102091.47
2018-07-09T00:03:09.696Z,102085.73
2018-07-09T00:05:39.266Z,102083.61
2018-07-09T00:08:08.143Z,102089.08
2018-07-09T00:10:47.564Z,102086.17
2018-07-09T00:13:15.749Z,102088.24
2018-07-09T00:15:43.852Z,102090.34
2018-07-09T00:18:11.915Z,102094.73
2018-07-09T00:20:39.935Z,102088.92
2018-07-09T00:23:08.016Z,102094.04
2018-07-09T00:25:36.036Z,102088.34
2018-07-09T00:28:04.068Z,102086.47
2018-07-09T00:30:32.104Z,102085.39
2018-07-09T00:33:00.143Z,102089.70
2018-07-09T00:35:28.164Z,102092.59
2018-07-09T00:37:56.196Z,102086.07
2018-07-09T00:40:24.228Z,102083.16
2018-07-09T00:42:52.799Z,102088.01
2018-07-09T00:45:20.837Z,102093.38
2018-07-09T00:47:49.628Z,102089.86
2018-07-09T00:50:17.651Z,102089.83
2018-07-09T00:52:46.104Z,102084.34
2018-07-09T00:55:14.227Z,102087.83
2018-07-09T00:57:42.273Z,102076.77
2018-07-09T01:00:10.336Z,102079.91
2018-07-09T01:02:38.360Z,102087.55
2018-07-09T01:05:06.653Z,102087.16
2018-07-09T01:07:34.728Z,102084.98
2018-07-09T01:10:02.776Z,102084.81
2018-07-09T01:12:30.813Z,102077.14
2018-07-09T01:14:58.841Z,102081.67
2018-07-09T01:17:26.880Z,102078.98
2018-07-09T01:19:54.940Z,102080.47
2018-07-09T01:22:22.980Z,102075.59
2018-07-09T01:24:51.000Z,102078.47
2018-07-09T01:27:19.036Z,102076.69
2018-07-09T01:29:47.113Z,102078.40
2018-07-09T01:32:15.152Z,102070.95
2018-07-09T01:34:43.186Z,102068.25
2018-07-09T01:37:11.220Z,102070.09
2018-07-09T01:39:39.249Z,102067.64
2018-07-09T01:42:07.381Z,102070.17
2018-07-09T01:44:35.412Z,102062.50
2018-07-09T01:47:03.479Z,102063.16
2018-07-09T01:49:31.496Z,102056.55
2018-07-09T01:51:59.592Z,102054.10
2018-07-09T01:54:27.624Z,102055.94
2018-07-09T01:56:55.660Z,102059.98
2018-07-09T01:59:23.788Z,102059.02
2018-07-09T02:01:51.807Z,102055.02
2018-07-09T02:04:19.845Z,102054.06
2018-07-09T02:06:47.865Z,102057.06
2018-07-09T02:09:15.904Z,102057.15
2018-07-09T02:11:43.927Z,102054.45
2018-07-09T02:14:11.972Z,102048.17
2018-07-09T02:16:39.996Z,102052.66
2018-07-09T02:19:08.059Z,102054.40
2018-07-09T02:21:36.088Z,102053.92
2018-07-09T02:24:04.121Z,102047.30
2018-07-09T02:26:32.139Z,102050.08
2018-07-09T02:29:00.180Z,102047.64
2018-07-09T02:31:28.203Z,102044.59
2018-07-09T02:33:56.243Z,102042.98
2018-07-09T02:36:24.270Z,102038.32
2018-07-09T02:38:52.304Z,102033.41
2018-07-09T02:41:20.332Z,102032.70
2018-07-09T02:43:48.376Z,102033.61
2018-07-09T02:46:16.409Z,102032.88
2018-07-09T02:48:44.444Z,102038.52
2018-07-09T02:51:12.465Z,102029.20
2018-07-09T02:53:40.501Z,102025.63
2018-07-09T02:56:08.537Z,102026.77
2018-07-09T02:58:36.585Z,102027.45
2018-07-09T03:01:04.734Z,102018.35
2018-07-09T03:03:32.645Z,102015.34
2018-07-09T03:06:00.671Z,102025.09
2018-07-09T03:08:28.700Z,102032.14
2018-07-09T03:10:56.760Z,102038.36
2018-07-09T03:13:24.792Z,102040.91
2018-07-09T03:15:52.849Z,102045.66
2018-07-09T03:18:20.876Z,102047.62
2018-07-09T03:20:48.903Z,102050.17
2018-07-09T03:23:16.936Z,102050.40
2018-07-09T03:25:44.964Z,102049.27
2018-07-09T03:28:13.008Z,102047.05
2018-07-09T03:30:41.024Z,102051.48
2018-07-09T03:33:09.056Z,102050.40
2018-07-09T03:35:37.076Z,102044.13
2018-07-09T03:38:05.148Z,102045.17
2018-07-09T03:40:33.176Z,102042.64
2018-07-09T03:43:01.207Z,102039.18
2018-07-09T03:45:29.247Z,102034.35
2018-07-09T03:47:57.293Z,102037.62
2018-07-09T03:50:25.315Z,102036.11
2018-07-09T03:52:53.337Z,102042.77
2018-07-09T03:55:21.428Z,102039.86
2018-07-09T03:57:49.460Z,102035.03
2018-07-09T04:00:17.484Z,102034.83
2018-07-09T04:02:45.512Z,102035.00
2018-07-09T04:05:13.552Z,102030.70
2018-07-09T04:07:41.572Z,102025.61
2018-07-09T04:10:09.612Z,102025.66
2018-07-09T04:12:37.635Z,102025.83
2018-07-09T04:15:05.700Z,102018.09
2018-07-09T04:17:33.748Z,102013.61
2018-07-09T04:20:01.815Z,102013.66
2018-07-09T04:22:29.828Z,102013.13
2018-07-09T04:24:57.864Z,102011.77
2018-07-09T04:27:25.915Z,102005.66
2018-07-09T04:29:53.939Z,102013.14
2018-07-09T04:32:21.968Z,102017.36
2018-07-09T04:34:50.040Z,102013.21
2018-07-09T04:37:18.063Z,102014.77
2018-07-09T04:39:46.088Z,102009.56
2018-07-09T04:42:14.119Z,102006.08
2018-07-09T04:44:42.156Z,102003.20
2018-07-09T04:47:10.184Z,102006.93
2018-07-09T04:49:38.253Z,102010.42
2018-07-09T04:52:06.283Z,102005.59
2018-07-09T04:54:34.332Z,102003.87
2018-07-09T04:57:02.366Z,102010.86
2018-07-09T04:59:30.444Z,102011.48
2018-07-09T05:01:58.461Z,102008.72
2018-07-09T05:04:26.503Z,102009.20
2018-07-09T05:06:54.710Z,102006.75
2018-07-09T05:09:22.829Z,102006.08
2018-07-09T05:11:50.848Z,102009.23
2018-07-09T05:14:18.885Z,102004.59
2018-07-09T05:16:46.903Z,102000.41
2018-07-09T05:19:14.936Z,101998.20
2018-07-09T05:21:42.958Z,101994.59
2018-07-09T05:24:11.081Z,101989.02
2018-07-09T05:26:39.199Z,101984.86
2018-07-09T05:29:07.268Z,101987.90
2018-07-09T05:31:35.311Z,101982.17
2018-07-09T05:34:03.345Z,101988.22
2018-07-09T05:36:31.377Z,101988.83
2018-07-09T05:38:59.407Z,101989.77
2018-07-09T05:41:27.438Z,101988.22
2018-07-09T05:43:55.467Z,101986.25
2018-07-09T05:46:23.503Z,101985.20
2018-07-09T05:48:51.543Z,101986.96
2018-07-09T05:51:19.595Z,101988.22
2018-07-09T05:53:47.648Z,101985.67
2018-07-09T05:56:15.694Z,101982.63
2018-07-09T05:58:43.715Z,101977.02
2018-07-09T06:01:11.751Z,101980.99
2018-07-09T06:03:39.777Z,101973.75
2018-07-09T06:06:07.833Z,101973.53
2018-07-09T06:08:35.852Z,101975.16
2018-07-09T06:11:03.970Z,101976.40
2018-07-09T06:13:32.005Z,101969.06
2018-07-09T06:16:00.024Z,101969.37
2018-07-09T06:18:28.060Z,101964.70
2018-07-09T06:20:56.196Z,101954.89
2018-07-09T06:23:24.254Z,101964.67
2018-07-09T06:25:52.287Z,101963.44
2018-07-09T06:28:20.348Z,101960.73
2018-07-09T06:30:48.380Z,101965.13
2018-07-09T06:33:16.416Z,101957.16
2018-07-09T06:35:44.454Z,101953.75
2018-07-09T06:38:12.490Z,101963.97
2018-07-09T06:40:40.524Z,101957.27
2018-07-09T06:43:08.784Z,101962.92
2018-07-09T06:45:36.824Z,101948.67
2018-07-09T06:48:04.859Z,101958.23
2018-07-09T06:50:32.888Z,101954.12
2018-07-09T06:53:00.916Z,101949.30
2018-07-09T06:55:28.968Z,101941.80
2018-07-09T06:57:56.988Z,101942.70
2018-07-09T07:00:25.028Z,101948.84
2018-07-09T07:02:53.085Z,101941.95
2018-07-09T07:05:21.112Z,101940.67
2018-07-09T07:07:49.159Z,101933.98
2018-07-09T07:10:17.184Z,101933.04
2018-07-09T07:12:45.240Z,101924.27
2018-07-09T07:15:13.255Z,101927.80
2018-07-09T07:17:41.300Z,101933.09
2018-07-09T07:20:09.332Z,101928.59
2018-07-09T07:22:37.400Z,101938.77
2018-07-09T07:25:05.864Z,101937.87
2018-07-09T07:27:33.900Z,101942.06
2018-07-09T07:30:01.940Z,101930.88
2018-07-09T07:32:29.985Z,101926.72
2018-07-09T07:34:58.051Z,101920.34
2018-07-09T07:37:26.136Z,101920.30
2018-07-09T07:39:54.175Z,101917.33
2018-07-09T07:42:22.205Z,101916.38
2018-07-09T07:44:50.242Z,101900.61
2018-07-09T07:47:18.281Z,101903.92
2018-07-09T07:49:46.335Z,101903.48
2018-07-09T07:52:14.372Z,101902.20
2018-07-09T07:54:42.400Z,101896.36
2018-07-09T07:57:10.766Z,101896.69
2018-07-09T07:59:38.823Z,101898.13
2018-07-09T08:02:06.863Z,101894.84
2018-07-09T08:04:34.896Z,101896.02
2018-07-09T08:07:02.952Z,101902.61
2018-07-09T08:09:31.087Z,101899.66
2018-07-09T08:12:59.669Z,101909.20
2018-07-09T08:14:27.088Z,101903.02
2018-07-09T08:16:55.143Z,101891.14
2018-07-09T08:19:23.192Z,101895.75
2018-07-09T08:21:51.244Z,101892.64
2018-07-09T08:24:19.285Z,101884.39
2018-07-09T08:26:47.328Z,101889.86
2018-07-09T08:29:15.413Z,101883.56
2018-07-09T08:31:43.488Z,101888.37
2018-07-09T08:34:11.548Z,101876.44
2018-07-09T08:36:39.603Z,101869.05
2018-07-09T08:39:07.657Z,101874.02
2018-07-09T08:41:35.705Z,101863.31
2018-07-09T08:44:03.757Z,101878.38
2018-07-09T08:46:31.800Z,101884.58
2018-07-09T08:48:59.836Z,101882.46
2018-07-09T08:51:27.895Z,101882.38
2018-07-09T08:53:55.961Z,101879.05
2018-07-09T08:56:24.041Z,101877.81
2018-07-09T08:58:52.140Z,101873.56
2018-07-09T09:01:20.218Z,101868.42
2018-07-09T09:03:48.236Z,101866.53
2018-07-09T09:06:16.256Z,101865.75
2018-07-09T09:08:44.291Z,101866.73
2018-07-09T09:11:12.331Z,101875.27
2018-07-09T09:13:40.393Z,101872.70
2018-07-09T09:16:08.448Z,101871.59
2018-07-09T09:18:36.534Z,101874.61
2018-07-09T09:21:04.595Z,101875.62
2018-07-09T09:23:32.643Z,101878.34
2018-07-09T09:26:00.708Z,101882.35
2018-07-09T09:28:28.756Z,101879.62
2018-07-09T09:30:56.805Z,101874.12
2018-07-09T09:33:24.963Z,101878.27
2018-07-09T09:35:53.089Z,101867.97
2018-07-09T09:38:21.148Z,101877.39
2018-07-09T09:40:49.187Z,101869.31
2018-07-09T09:43:17.232Z,101870.51
2018-07-09T09:45:45.283Z,101875.48
2018-07-09T09:48:13.355Z,101870.30
2018-07-09T09:50:41.376Z,101864.11
2018-07-09T09:53:09.435Z,101873.92
2018-07-09T09:55:37.804Z,101867.62
2018-07-09T09:58:06.519Z,101873.51
2018-07-09T10:00:39.907Z,101877.34
2018-07-09T10:03:07.936Z,101871.31
2018-07-09T10:05:36.019Z,101885.14
2018-07-09T10:08:04.063Z,101867.95
2018-07-09T10:10:32.123Z,101877.34
2018-07-09T10:13:00.192Z,101881.90
2018-07-09T10:15:28.231Z,101867.87
2018-07-09T10:17:56.289Z,101872.45
2018-07-09T10:20:24.333Z,101858.38
2018-07-09T10:22:52.500Z,101865.50
2018-07-09T10:25:20.481Z,101854.52
2018-07-09T10:27:48.582Z,101853.30
2018-07-09T10:30:16.557Z,101859.70
2018-07-09T10:32:44.605Z,101859.62
2018-07-09T10:35:12.639Z,101873.28
2018-07-09T10:37:40.696Z,101871.05
2018-07-09T10:40:08.739Z,101864.58
2018-07-09T10:42:36.783Z,101877.92
2018-07-09T10:45:04.836Z,101865.45
2018-07-09T10:47:32.888Z,101878.69
2018-07-09T10:50:00.940Z,101869.58
2018-07-09T10:52:28.992Z,101875.09
2018-07-09T10:54:57.027Z,101875.47
2018-07-09T10:57:25.067Z,101868.30
2018-07-09T10:59:53.126Z,101868.17
2018-07-09T11:02:21.163Z,101864.81
2018-07-09T11:04:49.203Z,101862.31
2018-07-09T11:07:17.244Z,101868.19
2018-07-09T11:09:45.314Z,101870.44
2018-07-09T11:12:13.339Z,101856.43
2018-07-09T11:14:41.388Z,101869.29
2018-07-09T11:17:09.420Z,101866.23
2018-07-09T11:19:37.487Z,101874.29
2018-07-09T11:22:05.566Z,101874.23
2018-07-09T11:24:33.627Z,101879.87
2018-07-09T11:27:01.659Z,101874.08
2018-07-09T11:29:29.999Z,101879.15
2018-07-09T11:31:58.044Z,101879.41
2018-07-09T11:34:26.129Z,101876.14
2018-07-09T11:36:54.164Z,101875.28
2018-07-09T11:39:22.219Z,101875.91
2018-07-09T11:41:50.261Z,101873.75
2018-07-09T11:44:18.308Z,101879.80
2018-07-09T11:46:46.347Z,101869.88
2018-07-09T11:49:14.395Z,101868.57
2018-07-09T11:51:42.444Z,101865.36
2018-07-09T11:54:10.475Z,101865.38
2018-07-09T11:56:38.528Z,101868.03
2018-07-09T11:59:06.601Z,101867.80
2018-07-09T12:01:34.644Z,101865.41
2018-07-09T12:04:02.692Z,101887.73
2018-07-09T12:06:30.737Z,101877.67
2018-07-09T12:08:58.784Z,101876.69
2018-07-09T12:11:26.893Z,101877.61
2018-07-09T12:13:54.972Z,101869.53
2018-07-09T12:16:23.000Z,101881.69
2018-07-09T12:18:51.055Z,101877.76
2018-07-09T12:21:19.111Z,101876.94
2018-07-09T12:23:47.151Z,101876.15
2018-07-09T12:26:15.199Z,101869.32
2018-07-09T12:28:43.244Z,101884.94
2018-07-09T12:31:11.311Z,101885.55
2018-07-09T12:33:39.364Z,101871.13
2018-07-09T12:36:07.914Z,101868.11
2018-07-09T12:38:35.912Z,101872.88
2018-07-09T12:41:03.961Z,101870.83
2018-07-09T12:43:32.001Z,101868.98
2018-07-09T12:46:00.055Z,101868.79
2018-07-09T12:48:28.072Z,101871.53
2018-07-09T12:50:56.123Z,101873.48
2018-07-09T12:53:24.880Z,101865.48
2018-07-09T12:55:52.939Z,101865.68
2018-07-09T12:58:20.968Z,101864.07
2018-07-09T13:00:49.012Z,101871.63
2018-07-09T13:03:17.040Z,101870.44
2018-07-09T13:05:45.081Z,101876.52
2018-07-09T13:08:13.110Z,101876.66
2018-07-09T13:10:41.781Z,101874.97
2018-07-09T13:13:09.806Z,101875.34
2018-07-09T13:15:37.844Z,101880.66
2018-07-09T13:18:05.916Z,101881.92
2018-07-09T13:20:33.948Z,101886.52
2018-07-09T13:23:02.099Z,101887.09
2018-07-09T13:25:30.205Z,101878.38
2018-07-09T13:27:58.260Z,101877.05
2018-07-09T13:30:26.330Z,101866.91
2018-07-09T13:32:54.361Z,101865.81
2018-07-09T13:35:22.392Z,101859.77
2018-07-09T13:37:50.427Z,101865.05
2018-07-09T13:40:18.468Z,101859.84
2018-07-09T13:42:46.544Z,101859.16
2018-07-09T13:45:14.598Z,101864.13
2018-07-09T13:47:42.668Z,101855.17
2018-07-09T13:50:10.703Z,101857.86
2018-07-09T13:52:38.740Z,101860.43
2018-07-09T13:55:06.784Z,101867.45
2018-07-09T13:57:35.000Z,101873.22
2018-07-09T14:00:03.044Z,101860.53
2018-07-09T14:02:31.068Z,101858.82
2018-07-09T14:04:59.139Z,101856.38
2018-07-09T14:07:27.201Z,101861.37
2018-07-09T14:09:55.262Z,101861.84
2018-07-09T14:12:26.595Z,101857.31
2018-07-09T14:14:55.276Z,101855.31
2018-07-09T14:17:23.304Z,101840.73
2018-07-09T14:20:29.994Z,101847.89
2018-07-09T14:22:58.365Z,101843.46
2018-07-09T14:25:26.428Z,101847.02
2018-07-09T14:27:54.464Z,101839.11
2018-07-09T14:30:22.556Z,101834.90
2018-07-09T14:32:50.584Z,101840.80
2018-07-09T14:35:18.615Z,101831.36
2018-07-09T14:37:46.688Z,101817.13
2018-07-09T14:40:14.719Z,101817.02
2018-07-09T14:42:42.779Z,101819.76
2018-07-09T14:45:10.865Z,101819.83
2018-07-09T14:47:38.885Z,101816.52
2018-07-09T14:50:06.969Z,101808.09
2018-07-09T14:52:35.005Z,101801.98
2018-07-09T14:55:03.053Z,101803.45
2018-07-09T14:57:31.134Z,101803.73
2018-07-09T14:59:59.167Z,101805.38
2018-07-09T15:02:27.200Z,101804.77
2018-07-09T15:04:55.219Z,101796.67
2018-07-09T15:07:23.572Z,101794.83
2018-07-09T15:09:51.628Z,101796.96
2018-07-09T15:12:19.677Z,101796.73
2018-07-09T15:14:47.703Z,101797.48
2018-07-09T15:17:15.736Z,101791.88
2018-07-09T15:19:43.772Z,101802.77
2018-07-09T15:22:11.812Z,101792.97
2018-07-09T15:24:39.850Z,101782.03
2018-07-09T15:27:07.892Z,101775.82
2018-07-09T15:29:35.928Z,101776.88
2018-07-09T15:32:16.876Z,101773.61
2018-07-09T15:34:44.892Z,101761.71
2018-07-09T15:37:12.996Z,101758.47
2018-07-09T15:39:41.066Z,101763.20
2018-07-09T15:42:09.171Z,101763.58
2018-07-09T15:44:37.284Z,101759.14
2018-07-09T15:47:05.586Z,101766.69
2018-07-09T15:49:33.604Z,101754.02
2018-07-09T15:52:01.644Z,101752.77
2018-07-09T15:54:29.680Z,101756.47
2018-07-09T15:56:57.753Z,101758.83
2018-07-09T15:59:25.780Z,101754.45
2018-07-09T16:01:53.815Z,101756.30
2018-07-09T16:04:21.849Z,101767.51
2018-07-09T16:06:49.888Z,101756.91
2018-07-09T16:09:17.891Z,101752.33
2018-07-09T16:11:45.935Z,101750.63
2018-07-09T16:14:13.970Z,101746.80
2018-07-09T16:16:42.012Z,101744.28
2018-07-09T16:19:10.069Z,101746.03
2018-07-09T16:21:38.121Z,101739.30
2018-07-09T16:24:06.176Z,101735.23
2018-07-09T16:26:34.216Z,101726.59
2018-07-09T16:29:02.256Z,101732.77
2018-07-09T16:31:30.268Z,101731.75
2018-07-09T16:33:58.309Z,101727.86
2018-07-09T16:36:26.403Z,101732.63
2018-07-09T16:38:54.354Z,101738.30
2018-07-09T16:41:22.380Z,101733.45
2018-07-09T16:43:50.420Z,101732.05
2018-07-09T16:46:18.449Z,101723.72
2018-07-09T16:48:46.492Z,101725.17
2018-07-09T16:51:21.084Z,101725.76
2018-07-09T16:53:49.123Z,101723.78
2018-07-09T16:56:17.144Z,101722.31
2018-07-09T16:58:45.186Z,101709.98
2018-07-09T17:01:13.216Z,101712.06
2018-07-09T17:03:41.256Z,101713.97
2018-07-09T17:06:09.316Z,101715.64
2018-07-09T17:08:37.351Z,101714.53
2018-07-09T17:11:05.386Z,101714.66
2018-07-09T17:13:33.439Z,101706.77
2018-07-09T17:16:01.465Z,101694.68
2018-07-09T17:18:29.511Z,101690.62
2018-07-09T17:20:57.555Z,101695.56
2018-07-09T17:23:25.595Z,101695.39
2018-07-09T17:25:53.618Z,101697.69
2018-07-09T17:28:21.656Z,101683.93
2018-07-09T17:30:49.676Z,101691.06
2018-07-09T17:33:17.715Z,101679.49
2018-07-09T17:35:45.740Z,101670.58
2018-07-09T17:38:13.819Z,101673.44
2018-07-09T17:40:41.856Z,101670.75
2018-07-09T17:43:09.903Z,101679.64
2018-07-09T17:45:37.928Z,101680.33
2018-07-09T17:48:05.992Z,101690.57
2018-07-09T17:50:34.045Z,101679.09
2018-07-09T17:53:02.081Z,101671.77
2018-07-09T17:55:30.119Z,101686.38
2018-07-09T17:57:58.179Z,101697.33
2018-07-09T18:00:26.196Z,101674.34
2018-07-09T18:02:54.223Z,101674.68
2018-07-09T18:05:22.278Z,101688.01
2018-07-09T18:07:50.304Z,101687.87
2018-07-09T18:10:18.417Z,101687.87
2018-07-09T18:12:46.382Z,101686.22
2018-07-09T18:15:14.416Z,101683.55
2018-07-09T18:17:42.456Z,101688.45
2018-07-09T18:20:10.501Z,101687.42
2018-07-09T18:22:38.521Z,101686.80
2018-07-09T18:25:07.143Z,101676.89
2018-07-09T18:27:35.164Z,101673.94
2018-07-09T18:30:03.209Z,101675.49
2018-07-09T18:32:31.233Z,101689.52
2018-07-09T18:34:59.265Z,101694.98
2018-07-09T18:37:27.288Z,101694.20
2018-07-09T18:39:55.424Z,101693.95
2018-07-09T18:42:23.480Z,101688.52
2018-07-09T18:44:51.523Z,101690.94
2018-07-09T18:47:19.557Z,101689.33
2018-07-09T18:49:47.588Z,101683.59
2018-07-09T18:52:15.612Z,101675.66
2018-07-09T18:54:43.651Z,101685.23
2018-07-09T18:57:11.677Z,101682.95
2018-07-09T18:59:39.725Z,101671.81
2018-07-09T19:02:07.763Z,101671.45
2018-07-09T19:04:35.807Z,101661.67
2018-07-09T19:07:07.181Z,101661.91
2018-07-09T19:09:35.725Z,101677.58
2018-07-09T19:12:05.064Z,101669.80
2018-07-09T19:14:36.980Z,101667.08
2018-07-09T19:18:21.936Z,101651.83
2018-07-09T19:21:29.124Z,101665.68
2018-07-09T19:23:56.205Z,101650.89
2018-07-09T19:26:23.247Z,101656.57
2018-07-09T19:28:50.424Z,101654.11
2018-07-09T19:31:17.726Z,101645.48
2018-07-09T19:33:44.835Z,101646.76
2018-07-09T19:36:11.904Z,101648.61
2018-07-09T19:38:39.272Z,101650.91
2018-07-09T19:41:06.733Z,101646.96
2018-07-09T19:43:33.978Z,101644.05
2018-07-09T19:46:01.073Z,101645.23
2018-07-09T19:48:28.116Z,101642.20
2018-07-09T19:50:55.187Z,101640.47
2018-07-09T19:53:22.240Z,101640.92
2018-07-09T19:55:49.312Z,101644.33
2018-07-09T19:58:16.380Z,101635.25
2018-07-09T20:00:43.722Z,101638.38
2018-07-09T20:03:11.171Z,101637.22
2018-07-09T20:05:38.240Z,101634.06
2018-07-09T20:08:06.076Z,101629.14
2018-07-09T20:10:38.511Z,101627.98
2018-07-09T20:14:08.631Z,101624.61
2018-07-09T20:16:41.163Z,101633.48
2018-07-09T20:19:08.703Z,101629.41
2018-07-09T20:21:35.776Z,101633.73
2018-07-09T20:24:02.836Z,101638.95
2018-07-09T20:26:29.911Z,101633.52
2018-07-09T20:28:56.976Z,101632.91
2018-07-09T20:31:24.046Z,101635.25
2018-07-09T20:33:51.107Z,101643.21
2018-07-09T20:36:18.254Z,101639.53
2018-07-09T20:38:45.316Z,101642.48
2018-07-09T20:41:12.735Z,101634.89
2018-07-09T20:43:39.795Z,101638.17
2018-07-09T20:46:06.866Z,101633.80
2018-07-09T20:48:33.915Z,101628.45
2018-07-09T20:51:00.983Z,101624.27
2018-07-09T20:53:28.053Z,101620.00
2018-07-09T20:55:55.932Z,101622.58
2018-07-09T20:58:22.993Z,101630.61
2018-07-09T21:00:50.101Z,101623.55
2018-07-09T21:03:17.164Z,101622.72
2018-07-09T21:05:44.229Z,101617.02
2018-07-09T21:08:11.288Z,101623.66
2018-07-09T21:10:38.350Z,101616.44
2018-07-09T21:13:05.409Z,101619.36
2018-07-09T21:15:32.554Z,101610.25
2018-07-09T21:17:59.552Z,101609.44
2018-07-09T21:20:26.619Z,101606.64
2018-07-09T21:22:53.680Z,101606.19
2018-07-09T21:25:20.748Z,101612.70
2018-07-09T21:27:47.812Z,101602.73
2018-07-09T21:30:14.884Z,101599.94
2018-07-09T21:32:41.953Z,101599.12
2018-07-09T21:35:09.020Z,101596.33
2018-07-09T21:37:36.146Z,101596.90
2018-07-09T21:40:03.154Z,101599.48
2018-07-09T21:42:30.216Z,101592.16
2018-07-09T21:44:57.284Z,101591.70
2018-07-09T21:47:24.352Z,101584.63
2018-07-09T21:49:51.407Z,101575.34
2018-07-09T21:52:18.476Z,101559.91
2018-07-09T21:54:45.544Z,101560.38
2018-07-09T21:57:12.616Z,101545.97
2018-07-09T21:59:39.671Z,101540.29
2018-07-09T22:02:06.744Z,101534.16
2018-07-09T22:04:33.808Z,101530.69
2018-07-09T22:07:00.881Z,101538.48
2018-07-09T22:09:27.940Z,101531.02
2018-07-09T22:11:55.009Z,101532.68
2018-07-09T22:14:22.071Z,101534.77
2018-07-09T22:16:49.140Z,101527.92
2018-07-09T22:19:16.516Z,101525.48
2018-07-09T22:21:44.072Z,101523.28
2018-07-09T22:24:11.133Z,101522.13
2018-07-09T22:26:38.204Z,101523.62
2018-07-09T22:29:05.268Z,101520.84
2018-07-09T22:31:33.308Z,101530.59
2018-07-09T22:34:01.327Z,101528.37
2018-07-09T22:36:29.369Z,101514.59
2018-07-09T22:38:57.391Z,101509.48
2018-07-09T22:41:25.443Z,101502.62
2018-07-09T22:44:04.951Z,101505.53
2018-07-09T22:46:32.982Z,101508.22
2018-07-09T22:49:01.007Z,101507.18
2018-07-09T22:51:29.045Z,101498.36
2018-07-09T22:53:57.076Z,101496.83
2018-07-09T22:56:25.123Z,101507.66
2018-07-09T22:58:53.136Z,101505.34
2018-07-09T23:01:21.205Z,101503.34
2018-07-09T23:03:49.236Z,101500.09
2018-07-09T23:06:17.265Z,101497.92
2018-07-09T23:08:45.288Z,101498.84
2018-07-09T23:14:04.060Z,101505.56
2018-07-09T23:16:44.940Z,101506.97
2018-07-09T23:19:25.100Z,101502.22
2018-07-09T23:22:04.578Z,101503.61
2018-07-09T23:24:31.640Z,101507.53
2018-07-09T23:26:58.787Z,101513.81
2018-07-09T23:29:25.845Z,101515.31
2018-07-09T23:31:52.972Z,101504.53
2018-07-09T23:34:20.157Z,101500.71
2018-07-09T23:36:47.242Z,101500.57
2018-07-09T23:39:14.348Z,101495.82
2018-07-09T23:41:41.419Z,101493.28
2018-07-09T23:44:08.491Z,101482.83
2018-07-09T23:46:35.547Z,101491.75
2018-07-09T23:49:02.620Z,101493.86
2018-07-09T23:51:29.717Z,101493.03
2018-07-09T23:57:01.732Z,101481.33
2018-07-09T23:59:41.418Z,101473.33
